sensor_id;sensor_type;location;lat;lon;timestamp;temperature;humidity
4453;DHT22;2239;48.152;11.584;2022-12-07T00:01:22;3.50;99.90
4453;DHT22;2239;48.152;11.584;2022-12-07T00:03:51;3.50;99.90
4453;DHT22;2239;48.152;11.584;2022-12-07T00:06:18;3.50;99.90
4453;DHT22;2239;48.152;11.584;2022-12-07T00:08:44;3.50;99.90
4453;DHT22;2239;48.152;11.584;2022-12-07T00:11:12;3.50;99.90
4453;DHT22;2239;48.152;11.584;2022-12-07T00:13:39;3.60;99.90
4453;DHT22;2239;48.152;11.584;2022-12-07T00:16:08;3.50;99.90
4453;DHT22;2239;48.152;11.584;2022-12-07T00:18:34;3.50;99.90
4453;DHT22;2239;48.152;11.584;2022-12-07T00:21:04;3.50;99.90
4453;DHT22;2239;48.152;11.584;2022-12-07T00:23:30;3.50;99.90
4453;DHT22;2239;48.152;11.584;2022-12-07T00:25:55;3.40;99.90
4453;DHT22;2239;48.152;11.584;2022-12-07T00:28:22;3.40;99.90
4453;DHT22;2239;48.152;11.584;2022-12-07T00:30:48;3.40;99.90
4453;DHT22;2239;48.152;11.584;2022-12-07T00:33:13;3.40;99.90
4453;DHT22;2239;48.152;11.584;2022-12-07T00:35:39;3.40;99.90
4453;DHT22;2239;48.152;11.584;2022-12-07T00:38:05;3.40;99.90
4453;DHT22;2239;48.152;11.584;2022-12-07T00:40:30;3.40;99.90
4453;DHT22;2239;48.152;11.584;2022-12-07T00:42:56;3.40;99.90
4453;DHT22;2239;48.152;11.584;2022-12-07T00:45:21;3.40;99.90
4453;DHT22;2239;48.152;11.584;2022-12-07T00:47:47;3.30;99.90
4453;DHT22;2239;48.152;11.584;2022-12-07T00:50:13;3.30;99.90
4453;DHT22;2239;48.152;11.584;2022-12-07T00:52:38;3.30;99.90
4453;DHT22;2239;48.152;11.584;2022-12-07T00:55:04;3.30;99.90
4453;DHT22;2239;48.152;11.584;2022-12-07T00:57:30;3.30;99.90
4453;DHT22;2239;48.152;11.584;2022-12-07T00:59:56;3.30;99.90
4453;DHT22;2239;48.152;11.584;2022-12-07T01:02:23;3.30;99.90
4453;DHT22;2239;48.152;11.584;2022-12-07T01:04:49;3.30;99.90
4453;DHT22;2239;48.152;11.584;2022-12-07T01:07:14;3.30;99.90
4453;DHT22;2239;48.152;11.584;2022-12-07T01:09:40;3.30;99.90
4453;DHT22;2239;48.152;11.584;2022-12-07T01:12:05;3.30;99.90
4453;DHT22;2239;48.152;11.584;2022-12-07T01:14:31;3.30;99.90
4453;DHT22;2239;48.152;11.584;2022-12-07T01:16:57;3.30;99.90
4453;DHT22;2239;48.152;11.584;2022-12-07T01:19:22;3.30;99.90
4453;DHT22;2239;48.152;11.584;2022-12-07T01:21:48;3.30;99.90
4453;DHT22;2239;48.152;11.584;2022-12-07T01:24:13;3.30;99.90
4453;DHT22;2239;48.152;11.584;2022-12-07T01:26:39;3.30;99.90
4453;DHT22;2239;48.152;11.584;2022-12-07T01:29:05;3.30;99.90
4453;DHT22;2239;48.152;11.584;2022-12-07T01:31:31;3.40;99.90
4453;DHT22;2239;48.152;11.584;2022-12-07T01:33:59;3.30;99.90
4453;DHT22;2239;48.152;11.584;2022-12-07T01:36:31;3.30;99.90
4453;DHT22;2239;48.152;11.584;2022-12-07T01:39:02;3.30;99.90
4453;DHT22;2239;48.152;11.584;2022-12-07T01:41:31;3.30;99.90
4453;DHT22;2239;48.152;11.584;2022-12-07T01:44:20;3.30;99.90
4453;DHT22;2239;48.152;11.584;2022-12-07T01:46:57;3.30;99.90
4453;DHT22;2239;48.152;11.584;2022-12-07T01:49:45;3.30;99.90
4453;DHT22;2239;48.152;11.584;2022-12-07T01:52:25;3.30;99.90
4453;DHT22;2239;48.152;11.584;2022-12-07T01:54:56;3.30;99.90
4453;DHT22;2239;48.152;11.584;2022-12-07T01:57:23;3.30;99.90
4453;DHT22;2239;48.152;11.584;2022-12-07T01:59:51;3.30;99.90
4453;DHT22;2239;48.152;11.584;2022-12-07T02:02:25;3.20;99.90
4453;DHT22;2239;48.152;11.584;2022-12-07T02:04:52;3.30;99.90
4453;DHT22;2239;48.152;11.584;2022-12-07T02:07:20;3.20;99.90
4453;DHT22;2239;48.152;11.584;2022-12-07T02:09:47;3.20;99.90
4453;DHT22;2239;48.152;11.584;2022-12-07T02:12:12;3.20;99.90
4453;DHT22;2239;48.152;11.584;2022-12-07T02:14:38;3.20;99.90
4453;DHT22;2239;48.152;11.584;2022-12-07T02:17:21;3.30;99.90
4453;DHT22;2239;48.152;11.584;2022-12-07T02:20:21;3.20;99.90
4453;DHT22;2239;48.152;11.584;2022-12-07T02:25:53;3.20;99.90
4453;DHT22;2239;48.152;11.584;2022-12-07T02:31:16;3.20;99.90
4453;DHT22;2239;48.152;11.584;2022-12-07T02:33:47;3.20;99.90
4453;DHT22;2239;48.152;11.584;2022-12-07T02:36:21;3.20;99.90
4453;DHT22;2239;48.152;11.584;2022-12-07T02:41:37;3.20;99.90
4453;DHT22;2239;48.152;11.584;2022-12-07T02:44:08;3.10;99.90
4453;DHT22;2239;48.152;11.584;2022-12-07T02:46:51;3.20;99.90
4453;DHT22;2239;48.152;11.584;2022-12-07T02:49:19;3.20;99.90
4453;DHT22;2239;48.152;11.584;2022-12-07T02:51:47;3.20;99.90
4453;DHT22;2239;48.152;11.584;2022-12-07T02:54:15;3.20;99.90
4453;DHT22;2239;48.152;11.584;2022-12-07T03:04:50;3.30;99.90
4453;DHT22;2239;48.152;11.584;2022-12-07T03:09:51;3.20;99.90
4453;DHT22;2239;48.152;11.584;2022-12-07T03:12:24;3.20;99.90
4453;DHT22;2239;48.152;11.584;2022-12-07T03:15:01;3.20;99.90
4453;DHT22;2239;48.152;11.584;2022-12-07T03:17:32;3.30;99.90
4453;DHT22;2239;48.152;11.584;2022-12-07T03:20:02;3.20;99.90
4453;DHT22;2239;48.152;11.584;2022-12-07T03:22:31;3.20;99.90
4453;DHT22;2239;48.152;11.584;2022-12-07T03:25:01;3.20;99.90
4453;DHT22;2239;48.152;11.584;2022-12-07T03:27:53;3.20;99.90
4453;DHT22;2239;48.152;11.584;2022-12-07T03:30:23;3.20;99.90
4453;DHT22;2239;48.152;11.584;2022-12-07T03:35:40;3.20;99.90
4453;DHT22;2239;48.152;11.584;2022-12-07T03:41:26;3.20;99.90
4453;DHT22;2239;48.152;11.584;2022-12-07T03:43:54;3.20;99.90
4453;DHT22;2239;48.152;11.584;2022-12-07T03:52:09;3.20;99.90
4453;DHT22;2239;48.152;11.584;2022-12-07T03:54:41;3.20;99.90
4453;DHT22;2239;48.152;11.584;2022-12-07T03:57:10;3.20;99.90
4453;DHT22;2239;48.152;11.584;2022-12-07T03:59:37;3.20;99.90
4453;DHT22;2239;48.152;11.584;2022-12-07T04:02:05;3.10;99.90
4453;DHT22;2239;48.152;11.584;2022-12-07T04:04:31;3.10;99.90
4453;DHT22;2239;48.152;11.584;2022-12-07T04:06:58;3.10;99.90
4453;DHT22;2239;48.152;11.584;2022-12-07T04:09:24;3.10;99.90
4453;DHT22;2239;48.152;11.584;2022-12-07T04:11:49;3.10;99.90
4453;DHT22;2239;48.152;11.584;2022-12-07T04:14:15;3.10;99.90
4453;DHT22;2239;48.152;11.584;2022-12-07T04:16:51;3.10;99.90
4453;DHT22;2239;48.152;11.584;2022-12-07T04:19:19;3.20;99.90
4453;DHT22;2239;48.152;11.584;2022-12-07T04:21:45;3.10;99.90
4453;DHT22;2239;48.152;11.584;2022-12-07T04:24:12;3.10;99.90
4453;DHT22;2239;48.152;11.584;2022-12-07T04:26:39;3.10;99.90
4453;DHT22;2239;48.152;11.584;2022-12-07T04:29:04;3.10;99.90
4453;DHT22;2239;48.152;11.584;2022-12-07T04:31:30;3.10;99.90
4453;DHT22;2239;48.152;11.584;2022-12-07T04:33:56;3.10;99.90
4453;DHT22;2239;48.152;11.584;2022-12-07T04:36:22;3.10;99.90
4453;DHT22;2239;48.152;11.584;2022-12-07T04:38:47;3.10;99.90
4453;DHT22;2239;48.152;11.584;2022-12-07T04:41:13;3.10;99.90
4453;DHT22;2239;48.152;11.584;2022-12-07T04:43:39;3.10;99.90
4453;DHT22;2239;48.152;11.584;2022-12-07T04:46:05;3.10;99.90
4453;DHT22;2239;48.152;11.584;2022-12-07T04:48:30;3.20;99.90
4453;DHT22;2239;48.152;11.584;2022-12-07T04:50:56;3.20;99.90
4453;DHT22;2239;48.152;11.584;2022-12-07T04:53:22;3.10;99.90
4453;DHT22;2239;48.152;11.584;2022-12-07T04:55:47;3.10;99.90
4453;DHT22;2239;48.152;11.584;2022-12-07T04:58:13;3.10;99.90
4453;DHT22;2239;48.152;11.584;2022-12-07T05:00:39;3.10;99.90
4453;DHT22;2239;48.152;11.584;2022-12-07T05:03:05;3.10;99.90
4453;DHT22;2239;48.152;11.584;2022-12-07T05:05:31;3.10;99.90
4453;DHT22;2239;48.152;11.584;2022-12-07T05:07:56;3.10;99.90
4453;DHT22;2239;48.152;11.584;2022-12-07T05:10:23;3.10;99.90
4453;DHT22;2239;48.152;11.584;2022-12-07T05:12:49;3.10;99.90
4453;DHT22;2239;48.152;11.584;2022-12-07T05:15:15;3.10;99.90
4453;DHT22;2239;48.152;11.584;2022-12-07T05:17:41;3.10;99.90
4453;DHT22;2239;48.152;11.584;2022-12-07T05:20:07;3.10;99.90
4453;DHT22;2239;48.152;11.584;2022-12-07T05:22:34;3.00;99.90
4453;DHT22;2239;48.152;11.584;2022-12-07T05:24:59;3.00;99.90
4453;DHT22;2239;48.152;11.584;2022-12-07T05:27:25;3.00;99.90
4453;DHT22;2239;48.152;11.584;2022-12-07T05:29:51;3.00;99.90
4453;DHT22;2239;48.152;11.584;2022-12-07T05:32:17;3.00;99.90
4453;DHT22;2239;48.152;11.584;2022-12-07T05:34:43;3.00;99.90
4453;DHT22;2239;48.152;11.584;2022-12-07T05:37:09;3.00;99.90
4453;DHT22;2239;48.152;11.584;2022-12-07T05:39:34;3.00;99.90
4453;DHT22;2239;48.152;11.584;2022-12-07T05:42:00;3.00;99.90
4453;DHT22;2239;48.152;11.584;2022-12-07T05:44:45;3.00;99.90
4453;DHT22;2239;48.152;11.584;2022-12-07T05:47:11;3.00;99.90
4453;DHT22;2239;48.152;11.584;2022-12-07T05:49:37;2.90;99.90
4453;DHT22;2239;48.152;11.584;2022-12-07T05:52:03;2.90;99.90
4453;DHT22;2239;48.152;11.584;2022-12-07T05:54:29;2.90;99.90
4453;DHT22;2239;48.152;11.584;2022-12-07T05:56:54;3.00;99.90
4453;DHT22;2239;48.152;11.584;2022-12-07T05:59:20;3.00;99.90
4453;DHT22;2239;48.152;11.584;2022-12-07T06:01:54;2.90;99.90
4453;DHT22;2239;48.152;11.584;2022-12-07T06:04:21;2.90;99.90
4453;DHT22;2239;48.152;11.584;2022-12-07T06:06:47;2.90;99.90
4453;DHT22;2239;48.152;11.584;2022-12-07T06:09:13;2.90;99.90
4453;DHT22;2239;48.152;11.584;2022-12-07T06:11:40;2.90;99.90
4453;DHT22;2239;48.152;11.584;2022-12-07T06:14:24;2.80;99.90
4453;DHT22;2239;48.152;11.584;2022-12-07T06:16:50;2.90;99.90
4453;DHT22;2239;48.152;11.584;2022-12-07T06:19:16;2.80;99.90
4453;DHT22;2239;48.152;11.584;2022-12-07T06:21:42;2.80;99.90
4453;DHT22;2239;48.152;11.584;2022-12-07T06:24:11;2.80;99.90
4453;DHT22;2239;48.152;11.584;2022-12-07T06:26:38;2.80;99.90
4453;DHT22;2239;48.152;11.584;2022-12-07T06:29:03;2.80;99.90
4453;DHT22;2239;48.152;11.584;2022-12-07T06:31:29;2.80;99.90
4453;DHT22;2239;48.152;11.584;2022-12-07T06:33:59;2.80;99.90
4453;DHT22;2239;48.152;11.584;2022-12-07T06:36:24;2.90;99.90
4453;DHT22;2239;48.152;11.584;2022-12-07T06:38:50;2.80;99.90
4453;DHT22;2239;48.152;11.584;2022-12-07T06:41:16;2.90;99.90
4453;DHT22;2239;48.152;11.584;2022-12-07T06:43:41;2.80;99.90
4453;DHT22;2239;48.152;11.584;2022-12-07T06:46:08;2.80;99.90
4453;DHT22;2239;48.152;11.584;2022-12-07T06:48:33;2.80;99.90
4453;DHT22;2239;48.152;11.584;2022-12-07T06:50:59;2.80;99.90
4453;DHT22;2239;48.152;11.584;2022-12-07T06:53:25;2.80;99.90
4453;DHT22;2239;48.152;11.584;2022-12-07T06:55:50;2.80;99.90
4453;DHT22;2239;48.152;11.584;2022-12-07T06:58:17;2.80;99.90
4453;DHT22;2239;48.152;11.584;2022-12-07T07:00:43;2.80;99.90
4453;DHT22;2239;48.152;11.584;2022-12-07T07:03:09;2.80;99.90
4453;DHT22;2239;48.152;11.584;2022-12-07T07:05:35;2.80;99.90
4453;DHT22;2239;48.152;11.584;2022-12-07T07:08:01;2.80;99.90
4453;DHT22;2239;48.152;11.584;2022-12-07T07:10:28;2.80;99.90
4453;DHT22;2239;48.152;11.584;2022-12-07T07:12:54;2.80;99.90
4453;DHT22;2239;48.152;11.584;2022-12-07T07:15:19;2.90;99.90
4453;DHT22;2239;48.152;11.584;2022-12-07T07:17:45;2.80;99.90
4453;DHT22;2239;48.152;11.584;2022-12-07T07:20:11;2.80;99.90
4453;DHT22;2239;48.152;11.584;2022-12-07T07:22:37;2.80;99.90
4453;DHT22;2239;48.152;11.584;2022-12-07T07:25:03;2.90;99.90
4453;DHT22;2239;48.152;11.584;2022-12-07T07:27:29;2.90;99.90
4453;DHT22;2239;48.152;11.584;2022-12-07T07:29:54;2.90;99.90
4453;DHT22;2239;48.152;11.584;2022-12-07T07:32:20;2.90;99.90
4453;DHT22;2239;48.152;11.584;2022-12-07T07:34:47;2.90;99.90
4453;DHT22;2239;48.152;11.584;2022-12-07T07:37:13;2.90;99.90
4453;DHT22;2239;48.152;11.584;2022-12-07T07:39:39;2.90;99.90
4453;DHT22;2239;48.152;11.584;2022-12-07T07:42:05;2.90;99.90
4453;DHT22;2239;48.152;11.584;2022-12-07T07:44:33;2.90;99.90
4453;DHT22;2239;48.152;11.584;2022-12-07T07:46:59;3.00;99.90
4453;DHT22;2239;48.152;11.584;2022-12-07T07:49:24;3.00;99.90
4453;DHT22;2239;48.152;11.584;2022-12-07T07:51:50;3.00;99.90
4453;DHT22;2239;48.152;11.584;2022-12-07T07:54:16;2.90;99.90
4453;DHT22;2239;48.152;11.584;2022-12-07T07:56:42;2.90;99.90
4453;DHT22;2239;48.152;11.584;2022-12-07T07:59:07;3.00;99.90
4453;DHT22;2239;48.152;11.584;2022-12-07T08:01:33;3.00;99.90
4453;DHT22;2239;48.152;11.584;2022-12-07T08:03:59;3.00;99.90
4453;DHT22;2239;48.152;11.584;2022-12-07T08:06:25;3.00;99.90
4453;DHT22;2239;48.152;11.584;2022-12-07T08:08:51;3.00;99.90
4453;DHT22;2239;48.152;11.584;2022-12-07T08:11:17;3.00;99.90
4453;DHT22;2239;48.152;11.584;2022-12-07T08:13:45;3.00;99.90
4453;DHT22;2239;48.152;11.584;2022-12-07T08:16:12;3.00;99.90
4453;DHT22;2239;48.152;11.584;2022-12-07T08:18:39;3.00;99.90
4453;DHT22;2239;48.152;11.584;2022-12-07T08:21:06;3.00;99.90
4453;DHT22;2239;48.152;11.584;2022-12-07T08:23:33;3.00;99.90
4453;DHT22;2239;48.152;11.584;2022-12-07T08:26:04;3.00;99.90
4453;DHT22;2239;48.152;11.584;2022-12-07T08:28:30;3.00;99.90
4453;DHT22;2239;48.152;11.584;2022-12-07T08:31:00;3.00;99.90
4453;DHT22;2239;48.152;11.584;2022-12-07T08:33:26;3.00;99.90
4453;DHT22;2239;48.152;11.584;2022-12-07T08:35:52;3.00;99.90
4453;DHT22;2239;48.152;11.584;2022-12-07T08:38:17;3.10;99.90
4453;DHT22;2239;48.152;11.584;2022-12-07T08:40:43;3.10;99.90
4453;DHT22;2239;48.152;11.584;2022-12-07T08:43:08;3.20;99.90
4453;DHT22;2239;48.152;11.584;2022-12-07T08:45:34;3.20;99.90
4453;DHT22;2239;48.152;11.584;2022-12-07T08:48:06;3.20;99.90
4453;DHT22;2239;48.152;11.584;2022-12-07T08:50:34;3.30;99.90
4453;DHT22;2239;48.152;11.584;2022-12-07T08:53:03;3.30;99.90
4453;DHT22;2239;48.152;11.584;2022-12-07T08:55:30;3.40;99.90
4453;DHT22;2239;48.152;11.584;2022-12-07T08:57:58;3.40;99.90
4453;DHT22;2239;48.152;11.584;2022-12-07T09:00:24;3.50;99.90
4453;DHT22;2239;48.152;11.584;2022-12-07T09:02:51;3.50;99.90
4453;DHT22;2239;48.152;11.584;2022-12-07T09:05:18;3.50;99.90
4453;DHT22;2239;48.152;11.584;2022-12-07T09:07:47;3.50;99.90
4453;DHT22;2239;48.152;11.584;2022-12-07T09:10:17;3.50;99.90
4453;DHT22;2239;48.152;11.584;2022-12-07T09:12:43;3.50;99.90
4453;DHT22;2239;48.152;11.584;2022-12-07T09:15:09;3.50;99.90
4453;DHT22;2239;48.152;11.584;2022-12-07T09:17:35;3.60;99.90
4453;DHT22;2239;48.152;11.584;2022-12-07T09:20:02;3.60;99.90
4453;DHT22;2239;48.152;11.584;2022-12-07T09:22:29;3.60;99.90
4453;DHT22;2239;48.152;11.584;2022-12-07T09:24:59;3.60;99.90
4453;DHT22;2239;48.152;11.584;2022-12-07T09:27:25;3.60;99.90
4453;DHT22;2239;48.152;11.584;2022-12-07T09:29:51;3.70;99.90
4453;DHT22;2239;48.152;11.584;2022-12-07T09:32:17;3.80;99.90
4453;DHT22;2239;48.152;11.584;2022-12-07T09:34:43;3.70;99.90
4453;DHT22;2239;48.152;11.584;2022-12-07T09:37:09;3.70;99.90
4453;DHT22;2239;48.152;11.584;2022-12-07T09:39:38;3.80;99.90
4453;DHT22;2239;48.152;11.584;2022-12-07T09:42:04;3.80;99.90
4453;DHT22;2239;48.152;11.584;2022-12-07T09:44:31;3.90;99.90
4453;DHT22;2239;48.152;11.584;2022-12-07T09:46:57;4.50;99.90
4453;DHT22;2239;48.152;11.584;2022-12-07T09:49:28;5.20;99.90
4453;DHT22;2239;48.152;11.584;2022-12-07T09:54:39;5.30;99.90
4453;DHT22;2239;48.152;11.584;2022-12-07T09:57:08;5.50;99.90
4453;DHT22;2239;48.152;11.584;2022-12-07T09:59:35;5.70;99.90
4453;DHT22;2239;48.152;11.584;2022-12-07T10:02:40;5.80;99.90
4453;DHT22;2239;48.152;11.584;2022-12-07T10:05:21;5.80;99.90
4453;DHT22;2239;48.152;11.584;2022-12-07T10:07:49;5.80;99.90
4453;DHT22;2239;48.152;11.584;2022-12-07T10:10:19;5.50;99.90
4453;DHT22;2239;48.152;11.584;2022-12-07T10:15:19;5.20;99.90
4453;DHT22;2239;48.152;11.584;2022-12-07T10:17:51;5.20;99.90
4453;DHT22;2239;48.152;11.584;2022-12-07T10:23:00;5.60;99.90
4453;DHT22;2239;48.152;11.584;2022-12-07T10:25:29;6.20;99.90
4453;DHT22;2239;48.152;11.584;2022-12-07T10:28:18;6.30;99.90
4453;DHT22;2239;48.152;11.584;2022-12-07T10:35:53;6.20;99.90
4453;DHT22;2239;48.152;11.584;2022-12-07T10:38:19;6.60;99.90
4453;DHT22;2239;48.152;11.584;2022-12-07T10:40:45;6.90;99.90
4453;DHT22;2239;48.152;11.584;2022-12-07T10:48:31;7.40;99.10
4453;DHT22;2239;48.152;11.584;2022-12-07T10:59:04;9.80;94.90
4453;DHT22;2239;48.152;11.584;2022-12-07T11:22:09;15.90;65.70
4453;DHT22;2239;48.152;11.584;2022-12-07T11:24:52;16.40;61.40
4453;DHT22;2239;48.152;11.584;2022-12-07T11:38:01;11.60;71.30
4453;DHT22;2239;48.152;11.584;2022-12-07T11:40:36;10.80;73.90
4453;DHT22;2239;48.152;11.584;2022-12-07T11:46:12;10.00;87.50
4453;DHT22;2239;48.152;11.584;2022-12-07T11:49:07;10.10;83.30
4453;DHT22;2239;48.152;11.584;2022-12-07T11:51:37;9.80;86.20
4453;DHT22;2239;48.152;11.584;2022-12-07T11:54:23;9.70;91.00
4453;DHT22;2239;48.152;11.584;2022-12-07T11:56:51;9.20;89.60
4453;DHT22;2239;48.152;11.584;2022-12-07T11:59:40;9.10;92.50
4453;DHT22;2239;48.152;11.584;2022-12-07T12:02:18;8.80;90.10
4453;DHT22;2239;48.152;11.584;2022-12-07T12:04:58;8.60;90.70
4453;DHT22;2239;48.152;11.584;2022-12-07T12:07:26;8.70;89.70
4453;DHT22;2239;48.152;11.584;2022-12-07T12:09:54;8.40;90.30
4453;DHT22;2239;48.152;11.584;2022-12-07T12:21:00;8.60;90.60
4453;DHT22;2239;48.152;11.584;2022-12-07T12:23:42;8.60;90.50
4453;DHT22;2239;48.152;11.584;2022-12-07T12:26:21;9.30;89.20
4453;DHT22;2239;48.152;11.584;2022-12-07T12:29:19;9.80;85.30
4453;DHT22;2239;48.152;11.584;2022-12-07T12:31:47;9.40;85.70
4453;DHT22;2239;48.152;11.584;2022-12-07T12:36:55;8.40;88.70
4453;DHT22;2239;48.152;11.584;2022-12-07T12:39:21;8.10;90.00
4453;DHT22;2239;48.152;11.584;2022-12-07T12:52:00;6.90;91.90
4453;DHT22;2239;48.152;11.584;2022-12-07T12:54:34;6.80;92.10
4453;DHT22;2239;48.152;11.584;2022-12-07T12:57:11;6.70;92.80
4453;DHT22;2239;48.152;11.584;2022-12-07T13:05:14;6.60;93.00
4453;DHT22;2239;48.152;11.584;2022-12-07T13:15:49;6.50;93.70
4453;DHT22;2239;48.152;11.584;2022-12-07T13:20:59;6.50;93.80
4453;DHT22;2239;48.152;11.584;2022-12-07T13:23:37;6.50;94.00
4453;DHT22;2239;48.152;11.584;2022-12-07T13:28:39;6.50;94.80
4453;DHT22;2239;48.152;11.584;2022-12-07T13:31:19;6.50;94.00
4453;DHT22;2239;48.152;11.584;2022-12-07T13:33:48;6.40;94.10
4453;DHT22;2239;48.152;11.584;2022-12-07T13:36:29;6.40;94.40
4453;DHT22;2239;48.152;11.584;2022-12-07T13:41:42;6.40;94.40
4453;DHT22;2239;48.152;11.584;2022-12-07T13:44:13;6.40;94.70
4453;DHT22;2239;48.152;11.584;2022-12-07T13:49:31;6.20;95.00
4453;DHT22;2239;48.152;11.584;2022-12-07T13:52:17;6.10;95.20
4453;DHT22;2239;48.152;11.584;2022-12-07T13:54:59;6.00;95.40
4453;DHT22;2239;48.152;11.584;2022-12-07T13:57:26;5.90;95.50
4453;DHT22;2239;48.152;11.584;2022-12-07T13:59:53;5.80;95.80
4453;DHT22;2239;48.152;11.584;2022-12-07T14:02:33;5.70;96.00
4453;DHT22;2239;48.152;11.584;2022-12-07T14:07:54;5.60;96.50
4453;DHT22;2239;48.152;11.584;2022-12-07T14:12:52;5.40;96.70
4453;DHT22;2239;48.152;11.584;2022-12-07T14:15:24;5.40;97.00
4453;DHT22;2239;48.152;11.584;2022-12-07T14:17:51;5.30;97.10
4453;DHT22;2239;48.152;11.584;2022-12-07T14:22:56;5.40;97.90
4453;DHT22;2239;48.152;11.584;2022-12-07T14:25:26;5.50;97.50
4453;DHT22;2239;48.152;11.584;2022-12-07T14:27:59;5.70;97.30
4453;DHT22;2239;48.152;11.584;2022-12-07T14:30:31;5.70;97.10
4453;DHT22;2239;48.152;11.584;2022-12-07T14:32:59;5.80;97.40
4453;DHT22;2239;48.152;11.584;2022-12-07T14:35:26;5.90;97.30
4453;DHT22;2239;48.152;11.584;2022-12-07T14:37:52;5.90;97.00
4453;DHT22;2239;48.152;11.584;2022-12-07T14:40:26;6.00;96.30
4453;DHT22;2239;48.152;11.584;2022-12-07T14:43:13;6.00;96.10
4453;DHT22;2239;48.152;11.584;2022-12-07T14:45:40;5.90;96.20
4453;DHT22;2239;48.152;11.584;2022-12-07T14:48:07;5.80;94.90
4453;DHT22;2239;48.152;11.584;2022-12-07T14:50:38;5.70;95.00
4453;DHT22;2239;48.152;11.584;2022-12-07T14:53:17;5.50;94.90
4453;DHT22;2239;48.152;11.584;2022-12-07T14:55:43;5.40;95.20
4453;DHT22;2239;48.152;11.584;2022-12-07T14:58:16;5.30;95.40
4453;DHT22;2239;48.152;11.584;2022-12-07T15:00:43;5.20;94.80
4453;DHT22;2239;48.152;11.584;2022-12-07T15:03:09;5.20;95.00
4453;DHT22;2239;48.152;11.584;2022-12-07T15:05:35;5.00;95.30
4453;DHT22;2239;48.152;11.584;2022-12-07T15:08:01;5.00;95.40
4453;DHT22;2239;48.152;11.584;2022-12-07T15:10:30;4.90;95.50
4453;DHT22;2239;48.152;11.584;2022-12-07T15:13:02;4.80;95.80
4453;DHT22;2239;48.152;11.584;2022-12-07T15:15:51;4.80;96.20
4453;DHT22;2239;48.152;11.584;2022-12-07T15:18:17;4.70;96.40
4453;DHT22;2239;48.152;11.584;2022-12-07T15:20:43;4.70;96.60
4453;DHT22;2239;48.152;11.584;2022-12-07T15:23:10;4.70;96.80
4453;DHT22;2239;48.152;11.584;2022-12-07T15:25:35;4.60;96.80
4453;DHT22;2239;48.152;11.584;2022-12-07T15:28:01;4.60;97.00
4453;DHT22;2239;48.152;11.584;2022-12-07T15:30:27;4.60;97.10
4453;DHT22;2239;48.152;11.584;2022-12-07T15:32:53;4.60;97.30
4453;DHT22;2239;48.152;11.584;2022-12-07T15:35:20;4.60;97.50
4453;DHT22;2239;48.152;11.584;2022-12-07T15:37:46;4.60;97.70
4453;DHT22;2239;48.152;11.584;2022-12-07T15:40:14;4.60;97.90
4453;DHT22;2239;48.152;11.584;2022-12-07T15:42:40;4.60;98.10
4453;DHT22;2239;48.152;11.584;2022-12-07T15:45:07;4.60;98.50
4453;DHT22;2239;48.152;11.584;2022-12-07T15:47:43;4.60;99.20
4453;DHT22;2239;48.152;11.584;2022-12-07T15:50:12;4.60;99.90
4453;DHT22;2239;48.152;11.584;2022-12-07T15:52:38;4.50;99.90
4453;DHT22;2239;48.152;11.584;2022-12-07T15:55:05;4.60;99.90
4453;DHT22;2239;48.152;11.584;2022-12-07T15:57:31;4.60;99.90
4453;DHT22;2239;48.152;11.584;2022-12-07T15:59:57;4.60;99.90
4453;DHT22;2239;48.152;11.584;2022-12-07T16:02:23;4.50;99.90
4453;DHT22;2239;48.152;11.584;2022-12-07T16:04:50;4.50;99.90
4453;DHT22;2239;48.152;11.584;2022-12-07T16:07:16;4.50;99.90
4453;DHT22;2239;48.152;11.584;2022-12-07T16:09:44;4.50;99.90
4453;DHT22;2239;48.152;11.584;2022-12-07T16:12:10;4.40;99.90
4453;DHT22;2239;48.152;11.584;2022-12-07T16:14:37;4.40;99.90
4453;DHT22;2239;48.152;11.584;2022-12-07T16:17:02;4.30;99.90
4453;DHT22;2239;48.152;11.584;2022-12-07T16:19:30;4.30;99.90
4453;DHT22;2239;48.152;11.584;2022-12-07T16:21:55;4.20;99.90
4453;DHT22;2239;48.152;11.584;2022-12-07T16:24:21;4.20;99.90
4453;DHT22;2239;48.152;11.584;2022-12-07T16:26:48;4.00;99.90
4453;DHT22;2239;48.152;11.584;2022-12-07T16:29:15;3.90;99.90
4453;DHT22;2239;48.152;11.584;2022-12-07T16:31:41;4.00;99.90
4453;DHT22;2239;48.152;11.584;2022-12-07T16:34:06;3.90;99.90
4453;DHT22;2239;48.152;11.584;2022-12-07T16:36:32;4.00;99.90
4453;DHT22;2239;48.152;11.584;2022-12-07T16:38:59;4.00;99.90
4453;DHT22;2239;48.152;11.584;2022-12-07T16:41:25;3.90;99.90
4453;DHT22;2239;48.152;11.584;2022-12-07T16:43:50;3.90;99.90
4453;DHT22;2239;48.152;11.584;2022-12-07T16:46:16;3.90;99.90
4453;DHT22;2239;48.152;11.584;2022-12-07T16:48:42;3.80;99.90
4453;DHT22;2239;48.152;11.584;2022-12-07T16:51:10;3.80;99.90
4453;DHT22;2239;48.152;11.584;2022-12-07T16:53:36;3.70;99.90
4453;DHT22;2239;48.152;11.584;2022-12-07T16:56:04;3.80;99.90
4453;DHT22;2239;48.152;11.584;2022-12-07T16:58:30;3.80;99.90
4453;DHT22;2239;48.152;11.584;2022-12-07T17:00:56;3.80;99.90
4453;DHT22;2239;48.152;11.584;2022-12-07T17:03:22;3.80;99.90
4453;DHT22;2239;48.152;11.584;2022-12-07T17:05:48;3.70;99.90
4453;DHT22;2239;48.152;11.584;2022-12-07T17:08:14;3.70;99.90
4453;DHT22;2239;48.152;11.584;2022-12-07T17:10:42;3.70;99.90
4453;DHT22;2239;48.152;11.584;2022-12-07T17:13:09;3.70;99.90
4453;DHT22;2239;48.152;11.584;2022-12-07T17:15:57;3.70;99.90
4453;DHT22;2239;48.152;11.584;2022-12-07T17:18:23;3.70;99.90
4453;DHT22;2239;48.152;11.584;2022-12-07T17:20:49;3.70;99.90
4453;DHT22;2239;48.152;11.584;2022-12-07T17:23:14;3.70;99.90
4453;DHT22;2239;48.152;11.584;2022-12-07T17:25:40;3.60;99.90
4453;DHT22;2239;48.152;11.584;2022-12-07T17:28:06;3.60;99.90
4453;DHT22;2239;48.152;11.584;2022-12-07T17:30:31;3.60;99.90
4453;DHT22;2239;48.152;11.584;2022-12-07T17:32:57;3.60;99.90
4453;DHT22;2239;48.152;11.584;2022-12-07T17:35:22;3.60;99.90
4453;DHT22;2239;48.152;11.584;2022-12-07T17:37:48;3.70;99.90
4453;DHT22;2239;48.152;11.584;2022-12-07T17:40:14;3.70;99.90
4453;DHT22;2239;48.152;11.584;2022-12-07T17:42:40;3.70;99.90
4453;DHT22;2239;48.152;11.584;2022-12-07T17:45:10;3.70;99.90
4453;DHT22;2239;48.152;11.584;2022-12-07T17:47:37;3.70;99.90
4453;DHT22;2239;48.152;11.584;2022-12-07T17:50:04;3.70;99.90
4453;DHT22;2239;48.152;11.584;2022-12-07T17:52:30;3.60;99.90
4453;DHT22;2239;48.152;11.584;2022-12-07T17:55:14;3.30;99.90
4453;DHT22;2239;48.152;11.584;2022-12-07T17:57:40;3.20;99.90
4453;DHT22;2239;48.152;11.584;2022-12-07T18:00:06;3.20;99.90
4453;DHT22;2239;48.152;11.584;2022-12-07T18:02:33;3.20;99.90
4453;DHT22;2239;48.152;11.584;2022-12-07T18:04:58;3.20;99.90
4453;DHT22;2239;48.152;11.584;2022-12-07T18:07:24;3.10;99.90
4453;DHT22;2239;48.152;11.584;2022-12-07T18:09:49;3.10;99.90
4453;DHT22;2239;48.152;11.584;2022-12-07T18:12:15;3.00;99.90
4453;DHT22;2239;48.152;11.584;2022-12-07T18:14:41;3.10;99.90
4453;DHT22;2239;48.152;11.584;2022-12-07T18:17:06;3.10;99.90
4453;DHT22;2239;48.152;11.584;2022-12-07T18:19:32;3.10;99.90
4453;DHT22;2239;48.152;11.584;2022-12-07T18:22:02;3.10;99.90
4453;DHT22;2239;48.152;11.584;2022-12-07T18:24:28;3.10;99.90
4453;DHT22;2239;48.152;11.584;2022-12-07T18:26:53;3.20;99.90
4453;DHT22;2239;48.152;11.584;2022-12-07T18:29:19;3.20;99.90
4453;DHT22;2239;48.152;11.584;2022-12-07T18:31:46;3.20;99.90
4453;DHT22;2239;48.152;11.584;2022-12-07T18:34:14;3.30;99.90
4453;DHT22;2239;48.152;11.584;2022-12-07T18:36:42;3.30;99.90